createdAt,value
2022-09-17T00:11:48.372Z,17.52
2022-09-17T00:26:50.740Z,18.05
2022-09-17T00:41:52.943Z,17.39
2022-09-17T00:56:55.199Z,16.99
2022-09-17T01:11:57.586Z,17.77
2022-09-17T01:26:59.823Z,17.83
2022-09-17T01:42:02.127Z,17.94
2022-09-17T01:57:04.380Z,17.34
2022-09-17T02:12:06.602Z,16.59
2022-09-17T02:27:08.887Z,15.63
2022-09-17T02:42:11.258Z,16.95
2022-09-17T02:57:13.728Z,17.55
2022-09-17T03:12:16.206Z,16.85
2022-09-17T03:27:18.478Z,17.31
2022-09-17T03:42:20.711Z,16.98
2022-09-17T03:57:22.950Z,16.96
2022-09-17T04:12:25.274Z,17.24
2022-09-17T04:27:27.490Z,16.99
2022-09-17T04:42:29.698Z,16.56
2022-09-17T04:57:31.944Z,17.2
2022-09-17T05:12:34.680Z,17.19
2022-09-17T05:27:37.157Z,17.32
2022-09-17T05:42:39.384Z,17.55
2022-09-17T05:57:41.617Z,17.65
2022-09-17T06:12:43.798Z,17.5
2022-09-17T06:27:46.100Z,17.15
2022-09-17T06:42:48.326Z,17.27
2022-09-17T06:57:50.597Z,16.88
2022-09-17T07:12:52.964Z,17.15
2022-09-17T07:27:55.202Z,15.84
2022-09-17T07:42:57.435Z,15.57
2022-09-17T07:57:59.957Z,15.58
2022-09-17T08:13:02.189Z,15.44
2022-09-17T08:28:04.402Z,15.31
2022-09-17T08:43:06.622Z,15.15
2022-09-17T08:58:09.072Z,14.79
2022-09-17T09:13:11.297Z,14.64
2022-09-17T09:28:13.486Z,14.03
2022-09-17T09:43:15.696Z,13.45
2022-09-17T09:58:17.890Z,13.1
2022-09-17T10:13:20.139Z,13.18
2022-09-17T10:28:22.420Z,13.51
2022-09-17T10:43:24.684Z,13.42
2022-09-17T10:58:26.903Z,13.17
2022-09-17T11:13:29.164Z,12.97
2022-09-17T11:28:31.435Z,13.28
2022-09-17T11:43:33.734Z,12.96
2022-09-17T11:58:35.952Z,12.58
2022-09-17T12:13:38.401Z,12.29
2022-09-17T12:28:40.740Z,12.31
2022-09-17T12:43:43.011Z,12.17
2022-09-17T12:58:45.327Z,11.74
2022-09-17T13:13:47.610Z,11.62
2022-09-17T13:28:49.801Z,11.79
2022-09-17T13:43:52.186Z,11.77
2022-09-17T13:58:54.475Z,12.01
2022-09-17T14:13:56.731Z,11.82
2022-09-17T14:28:58.939Z,12.14
2022-09-17T14:44:01.155Z,13.18
2022-09-17T14:59:03.379Z,13.55
2022-09-17T15:14:05.532Z,13.27
2022-09-17T15:29:07.789Z,14.21
2022-09-17T15:44:29.052Z,14.02
2022-09-17T15:59:33.010Z,15.08
2022-09-17T16:14:35.218Z,15.62
2022-09-17T16:29:37.500Z,16.18
2022-09-17T16:44:39.723Z,17.66
2022-09-17T16:59:42.005Z,16.79
2022-09-17T17:14:44.278Z,20.87
2022-09-17T17:29:46.498Z,19.6
2022-09-17T17:44:48.751Z,20.76
2022-09-17T17:59:51.218Z,20.87
2022-09-17T18:14:53.474Z,20.13
2022-09-17T18:29:55.882Z,19.84
2022-09-17T18:44:58.094Z,19.83
2022-09-17T19:00:00.524Z,19.83
2022-09-17T19:15:02.822Z,19.79
2022-09-17T19:30:05.052Z,20.17
2022-09-17T19:45:07.518Z,20.94
2022-09-17T20:00:09.725Z,21.7
2022-09-17T20:15:11.928Z,22.57
2022-09-17T20:30:14.169Z,23.27
2022-09-17T20:45:16.407Z,23.29
2022-09-17T21:00:18.580Z,22.81
2022-09-17T21:15:20.802Z,22.72
2022-09-17T21:30:23.075Z,22.74
2022-09-17T21:45:25.355Z,23.43
2022-09-17T22:00:27.698Z,22.74
2022-09-17T22:15:29.993Z,22.65
2022-09-17T22:30:32.358Z,23.97
2022-09-17T22:45:34.716Z,25.01
2022-09-17T23:00:36.952Z,24.44
2022-09-17T23:15:39.263Z,24.35
2022-09-17T23:30:41.579Z,24
2022-09-17T23:45:43.821Z,23.89
